Saturday, January 20, 2018, 8:22 AM EST
Back to Local

KLNS, Lancaster Airport

Location: Lititz, PA, United States Lat: 40.117
Local Time: 8:22 AM EST (13:22 GMT) Lon: -76.3
Time Zone: US/Eastern Elev: 403 ft

Show me the last for .
Show Coded

Time T Td Feel RH Dir Speed Gust Alt SLP Vis Weather Sky Remarks
2018-01-20 07:53 29 23 24 78 260° 5 - 29.94 29.95 10 CLR None
2018-01-20 06:53 29 22 25 74 280° 3 - 29.93 29.94 10 CLR 6-hr Min Temp (7am): 26.1°F
6-hr Max Temp (7am): 35.1°F
2018-01-20 06:16 30 22 26 71 280° 3 - 29.93 - 10 CLR None
2018-01-20 05:53 30 22 - 71 - Calm - 29.93 29.93 10 CLR None
2018-01-20 04:53 35 23 29 61 210° 7 - 29.93 29.93 10 CLR None
2018-01-20 03:53 26 20 21 77 230° 5 - 29.94 29.95 10 CLR None
2018-01-20 01:53 32 21 - 63 - Calm - 29.96 29.96 10 CLR None
2018-01-20 00:53 33 21 30 60 270° 3 - 29.95 29.96 10 CLR 6-hr Min Temp (1am): 26.1°F
6-hr Max Temp (1am): 39.9°F
2018-01-19 23:53 32 21 26 63 270° 6 - 29.98 29.98 10 CLR 24-hr Min Temp (12am): 12.9°F
24-hr Max Temp (12am): 43.0°F
2018-01-19 22:53 29 21 23 71 290° 6 - 29.99 30.00 10 CLR None
2018-01-19 21:53 32 22 27 65 290° 5 - 30.00 30.01 10 CLR None
2018-01-19 20:53 32 21 - 63 - Calm - 30.00 30.01 10 CLR None
2018-01-19 19:53 34 21 31 58 240° 3 - 30.00 30.01 10 CLR None
2018-01-19 18:53 38 21 36 50 210° 3 - 30.00 30.01 10 CLR 6-hr Min Temp (7pm): 36.0°F
6-hr Max Temp (7pm): 43.0°F
2018-01-19 17:53 40 21 - 46 - Calm - 30.00 30.01 10 CLR None
2018-01-19 16:53 41 22 38 46 250° 5 - 30.00 30.01 10 CLR None
2018-01-19 15:53 43 22 38 42 240° 9 - 30.00 30.01 10 CLR None
2018-01-19 14:53 42 22 38 44 240° 7 - 30.00 30.01 10 CLR None
2018-01-19 13:53 40 21 35 46 260° 7 - 30.02 30.03 10 CLR None
2018-01-19 12:53 38 21 31 50 260° 9 - 30.03 30.05 10 CLR 6-hr Min Temp (1pm): 14.0°F
6-hr Max Temp (1pm): 37.9°F
2018-01-19 11:53 36 20 30 51 270° 8 - 30.06 30.08 10 CLR None
2018-01-19 10:53 29 21 - 71 - Calm - 30.10 30.11 6 HZ CLR None
2018-01-19 09:53 27 18 - 68 - Calm - 30.10 30.12 8 CLR None
2018-01-19 08:53 21 16 16 80 260° 3 - 30.09 30.10 7 CLR None

Support USWX by starting your Amazon purchase here.